首页
METAR-TAF:

METAR-TAF

机场 :

邁諾特, 北达科他州, 美国

纬度: 48-15-34N, 经度: 101-16-49W, 海拔: 523米

当前天气观测

该预报发布于1小时和20分钟前的20:54 UTC
风速14节,风向西北,有时为23节阵风
温度 26°C
湿度 34%
气压 1013 hPa
能見度: 16.1公里
天空无云

METAR: KMOT 252054Z 31014G23KT 10SM CLR 26/09 A2990 RMK AO2 PK WND 28026/2002 SLP120 T02610094 53005

时间: 17:14 (22:14 UTC)

预报

该预报发布于4小时和52分钟前的17:22 UTC
预报有效从25日的 18点(UTC)到 26日的 18点(UTC)
风速16节,风向西,有时为24节阵风
能見度: 10公里
天空无云
从 26日的 0100点(UTC)
风速6节,风向北转西北
能見度: 10公里
散云层高于15000英尺

TAF: KMOT 251722Z 2518/2618 28016G24KT P6SM SKC FM260100 34006KT P6SM SCT150

超过4000个机场的气象观测和天气预报(METAR&TAF报告)。

可查询的气象台以黄色和红色小点在地图上表示。

将鼠标移到小点上方,可查看气象台名称。

然后点击查看天气观测和预报。

如需切换地图:点击带黑十字的绿色按钮放大地图;点击带横线的绿色按钮缩小地图;或者点击绿色箭头查看邻近地区的地图。


METAR-TAF: